Time;durP1;ratioP1;P1;durP2;ratioP2;P2;SDS_P1;SDS_P2;PMS_P1;PMS_P2;Temp;Humidity;BMP_temperature;BMP_pressure;BME280_temperature;BME280_humidity;BME280_pressure;Samples;Min_cycle;Max_cycle;Signal;HPM_P1;HPM_P2
2022/08/22 00:01:21;;;;;;;1.55;1.00;;;20.30;90.50;;;20.76;86.25;100942.59;5205690;28;20041;-70
2022/08/22 00:04:07;;;;;;;2.00;1.20;;;20.30;90.40;;;20.74;86.26;100938.19;5205391;28;20103;-69
2022/08/22 00:06:51;;;;;;;1.30;0.90;;;20.20;90.50;;;20.69;86.91;100940.84;5205496;28;20047;-69
2022/08/22 00:09:37;;;;;;;1.83;0.93;;;20.20;90.70;;;20.66;87.22;100948.78;5219883;28;20410;-71
2022/08/22 00:12:18;;;;;;;1.40;0.90;;;20.10;90.90;;;20.60;87.62;100951.47;5205519;28;20037;-70
2022/08/22 00:14:59;;;;;;;2.03;1.17;;;20.10;91.10;;;20.54;88.23;100943.56;5205663;28;20060;-70
2022/08/22 00:17:47;;;;;;;1.75;1.38;;;20.10;91.50;;;20.48;88.73;100938.31;5205291;28;20473;-71
2022/08/22 00:20:24;;;;;;;2.03;1.20;;;20.00;92.00;;;20.42;88.81;100940.94;5203925;28;20056;-70
2022/08/22 00:23:03;;;;;;;1.67;1.20;;;19.90;91.90;;;20.36;89.29;100943.59;5205394;28;20045;-71
2022/08/22 00:25:48;;;;;;;1.65;1.05;;;19.90;92.10;;;20.31;89.82;100944.47;5205210;28;20060;-69
2022/08/22 00:28:28;;;;;;;3.80;1.20;;;19.80;92.40;;;20.28;89.89;100954.22;5205164;28;20140;-70
2022/08/22 00:31:14;;;;;;;2.00;1.35;;;19.80;92.60;;;20.28;89.59;100946.28;5204251;28;20056;-70
2022/08/22 00:33:53;;;;;;;2.92;1.45;;;19.80;92.60;;;20.27;89.42;100945.34;5205233;28;20512;-70
2022/08/22 00:36:34;;;;;;;2.03;1.30;;;19.80;92.70;;;20.21;89.90;100940.13;5204426;28;20049;-70
2022/08/22 00:39:14;;;;;;;5.03;1.45;;;19.70;93.00;;;20.16;89.87;100944.53;5204893;28;20041;-70
2022/08/22 00:43:04;;;;;;;1.50;1.00;;;19.70;93.00;;;20.09;90.66;100932.19;5203865;28;20053;-70
2022/08/22 00:46:10;;;;;;;2.83;1.70;;;19.60;93.20;;;20.04;90.68;100941.91;5137167;28;20073;-69
2022/08/22 00:49:23;;;;;;;1.58;1.35;;;19.60;93.40;;;19.98;91.43;100941.91;5141307;28;20054;-70
2022/08/22 00:52:20;;;;;;;1.73;1.10;;;19.50;93.80;;;19.95;92.24;100944.53;5204817;28;20512;-70
2022/08/22 00:55:22;;;;;;;1.38;0.98;;;19.50;94.10;;;19.93;92.79;100946.31;5204570;28;20053;-70
2022/08/22 00:58:41;;;;;;;3.03;1.10;;;19.50;94.50;;;19.89;93.07;100944.56;5204641;28;20045;-70
2022/08/22 01:01:22;;;;;;;2.95;1.20;;;19.40;94.70;;;19.84;92.92;100943.69;5202596;28;20512;-71
2022/08/22 01:04:40;;;;;;;3.10;1.10;;;19.40;94.90;;;19.79;93.22;100938.41;5204853;28;20047;-69
2022/08/22 01:07:44;;;;;;;2.00;0.95;;;19.30;95.00;;;19.73;93.58;100943.69;5202068;28;20149;-71
2022/08/22 01:10:40;;;;;;;2.25;1.27;;;19.30;95.50;;;19.66;93.99;100945.44;5204328;28;20085;-71
2022/08/22 01:13:35;;;;;;;1.90;1.02;;;19.20;95.50;;;19.61;94.33;100939.28;5204638;28;20077;-70
2022/08/22 01:16:29;;;;;;;2.20;1.40;;;19.20;95.80;;;19.57;94.69;100937.50;5202877;28;20398;-70
2022/08/22 01:19:39;;;;;;;1.77;1.20;;;19.10;96.00;;;19.54;95.08;100932.19;5204351;28;20076;-70
2022/08/22 01:22:56;;;;;;;2.85;1.30;;;19.10;96.30;;;19.48;95.07;100922.50;5203391;28;20053;-70
2022/08/22 01:26:49;;;;;;;1.63;1.20;;;19.10;96.40;;;19.44;95.38;100927.81;5200729;28;20128;-70
2022/08/22 01:30:02;;;;;;;2.30;1.30;;;19.00;96.60;;;19.43;95.00;100923.38;5162731;28;20068;-70
2022/08/22 01:33:17;;;;;;;2.88;1.50;;;19.00;96.70;;;19.43;94.33;100919.00;5203923;28;20067;-70
2022/08/22 01:36:31;;;;;;;2.70;1.30;;;19.00;96.60;;;19.43;93.84;100926.00;5203692;28;20606;-69
2022/08/22 01:39:28;;;;;;;2.22;1.40;;;19.00;96.60;;;19.41;93.71;100930.41;5203939;28;20045;-69
2022/08/22 01:42:33;;;;;;;1.52;1.25;;;19.00;96.50;;;19.39;94.17;100921.63;5199072;28;20045;-69
2022/08/22 01:45:54;;;;;;;1.55;1.10;;;19.00;96.70;;;19.35;94.58;100919.84;5204177;28;20056;-71
2022/08/22 01:48:48;;;;;;;1.50;1.40;;;18.90;96.80;;;19.31;94.90;100918.09;5204019;28;20063;-70
2022/08/22 01:51:27;;;;;;;1.75;1.20;;;18.80;97.00;;;19.29;95.08;100925.13;5203922;28;20034;-70
2022/08/22 01:54:11;;;;;;;2.13;1.05;;;18.90;97.20;;;19.24;95.23;100912.81;5219203;28;20050;-70
2022/08/22 01:56:45;;;;;;;1.25;1.15;;;18.80;97.30;;;19.21;95.52;100917.19;5218729;28;20049;-70
2022/08/22 01:59:29;;;;;;;1.30;1.02;;;18.80;97.40;;;19.16;95.97;100925.09;5203734;28;20091;-69
2022/08/22 02:02:22;;;;;;;2.22;1.80;;;18.80;97.60;;;19.11;96.55;100916.31;5203666;28;20410;-69
2022/08/22 02:05:03;;;;;;;2.03;1.40;;;18.70;97.80;;;19.05;97.15;100916.28;5203774;28;20054;-70
2022/08/22 02:07:47;;;;;;;2.83;1.52;;;18.60;98.10;;;19.02;97.07;100921.56;5203336;28;20041;-70
2022/08/22 02:10:42;;;;;;;3.40;1.40;;;18.60;98.20;;;19.03;96.36;100912.75;5203841;28;20052;-71
2022/08/22 02:13:37;;;;;;;3.33;1.55;;;18.60;98.10;;;19.01;96.74;100914.50;5203857;28;20033;-69
2022/08/22 02:16:16;;;;;;;3.80;1.50;;;18.60;98.20;;;18.98;96.86;100922.44;5218906;28;20050;-70
2022/08/22 02:19:05;;;;;;;2.38;1.48;;;18.60;98.30;;;18.90;97.50;100922.41;5203374;28;20103;-69
2022/08/22 02:21:44;;;;;;;1.90;1.20;;;18.50;98.50;;;18.84;97.96;100918.84;5203577;28;20057;-69
2022/08/22 02:24:28;;;;;;;2.72;1.27;;;18.40;98.80;;;18.82;97.69;100913.56;5202467;28;20092;-69
2022/08/22 02:27:17;;;;;;;2.30;1.33;;;18.50;98.80;;;18.79;97.75;100910.94;5203368;28;20042;-70
2022/08/22 02:30:01;;;;;;;2.28;1.48;;;18.40;98.80;;;18.75;98.00;100910.91;5203568;28;20456;-70
2022/08/22 02:32:51;;;;;;;3.33;1.60;;;18.30;98.90;;;18.70;97.09;100908.25;5204807;28;20034;-70
2022/08/22 02:35:33;;;;;;;2.67;1.33;;;18.30;98.70;;;18.58;96.54;100906.44;5206167;28;20047;-70
2022/08/22 02:38:23;;;;;;;2.90;1.73;;;18.20;98.50;;;18.57;96.73;100907.28;5206775;28;20037;-69
2022/08/22 02:41:10;;;;;;;2.72;1.52;;;18.20;98.70;;;18.58;97.01;100908.16;5207573;28;20120;-69
2022/08/22 02:43:51;;;;;;;3.70;1.70;;;18.20;98.70;;;18.59;96.90;100899.41;5206189;28;20137;-69
2022/08/22 02:46:32;;;;;;;3.85;1.52;;;18.20;98.80;;;18.58;97.34;100903.81;5207056;28;20132;-69
2022/08/22 02:49:10;;;;;;;;;;;18.20;98.90;;;18.56;98.17;100909.94;5206253;28;20072;-70
2022/08/22 02:51:51;;;;;;;1.60;1.42;;;18.10;99.20;;;18.55;98.34;100913.44;5207118;28;19928;-71
2022/08/22 02:54:31;;;;;;;2.58;1.38;;;18.20;99.30;;;18.53;98.48;100904.66;5222429;28;20059;-71
2022/08/22 02:57:11;;;;;;;2.13;1.50;;;18.20;99.40;;;18.53;98.40;100902.91;5205540;28;20343;-70
2022/08/22 03:00:15;;;;;;;1.80;1.15;;;18.20;99.40;;;18.54;98.66;100896.75;5222803;28;20049;-70
2022/08/22 03:03:04;;;;;;;2.75;1.50;;;18.10;99.40;;;18.52;99.05;100887.94;5206974;28;20123;-70
2022/08/22 03:05:57;;;;;;;2.80;1.48;;;18.10;99.60;;;18.50;99.43;100900.22;5207003;28;20045;-71
2022/08/22 03:08:33;;;;;;;2.28;1.60;;;18.10;99.80;;;18.49;99.34;100898.47;5205493;28;20046;-70
2022/08/22 03:11:18;;;;;;;3.10;1.70;;;18.10;99.90;;;18.48;99.42;100895.84;5206517;28;20401;-70
2022/08/22 03:14:04;;;;;;;2.70;1.50;;;18.10;99.80;;;18.48;99.46;100887.91;5206891;28;20045;-69
2022/08/22 03:16:46;;;;;;;2.60;1.10;;;18.10;99.90;;;18.48;99.15;100885.28;5204975;28;20053;-69
2022/08/22 03:19:30;;;;;;;2.60;1.20;;;18.10;99.80;;;18.48;99.01;100885.28;5206445;28;20125;-69
2022/08/22 03:22:10;;;;;;;1.17;1.08;;;18.10;99.90;;;18.46;99.38;100893.19;5206943;28;20139;-69
2022/08/22 03:25:00;;;;;;;2.72;1.50;;;18.10;99.90;;;18.43;99.72;100895.81;5206645;28;20055;-70
2022/08/22 03:27:41;;;;;;;2.40;1.45;;;18.00;99.90;;;18.41;100.00;100894.94;5206108;28;20075;-69
2022/08/22 03:30:22;;;;;;;2.35;1.40;;;18.00;99.90;;;18.33;100.00;100892.25;5206293;28;20087;-70
2022/08/22 03:32:58;;;;;;;2.60;1.38;;;17.90;99.90;;;18.28;100.00;100887.81;5205483;28;20048;-70
2022/08/22 03:35:38;;;;;;;3.17;1.60;;;17.90;99.90;;;18.27;100.00;100889.59;5221700;28;20053;-70
2022/08/22 03:38:23;;;;;;;2.53;1.70;;;17.90;99.90;;;18.27;100.00;100886.94;5205101;28;20050;-70
2022/08/22 03:41:31;;;;;;;2.95;1.42;;;17.90;99.90;;;18.26;100.00;100890.47;5206372;28;20049;-70
2022/08/22 03:44:32;;;;;;;1.40;1.30;;;17.90;99.90;;;18.21;100.00;100886.03;5192016;28;20160;-70
2022/08/22 03:47:33;;;;;;;1.60;1.50;;;17.80;99.90;;;18.17;100.00;100888.63;5205771;28;20042;-69
2022/08/22 03:50:38;;;;;;;1.42;1.23;;;17.80;99.90;;;18.12;100.00;100882.44;5205970;28;20049;-70
2022/08/22 03:53:53;;;;;;;2.45;1.58;;;17.80;99.90;;;18.05;100.00;100880.66;5206230;28;20523;-70
2022/08/22 03:57:49;;;;;;;2.13;1.38;;;17.70;99.90;;;17.96;100.00;100872.69;5206035;28;20037;-70
2022/08/22 04:00:54;;;;;;;2.17;1.40;;;17.70;99.90;;;17.88;100.00;100888.47;5142938;28;20051;-70
2022/08/22 04:04:33;;;;;;;3.83;1.48;;;17.60;99.90;;;17.82;100.00;100890.19;5204515;28;20046;-69
2022/08/22 04:07:58;;;;;;;3.65;1.52;;;17.50;99.90;;;17.76;100.00;100876.97;5205659;28;20049;-69
2022/08/22 04:10:55;;;;;;;1.60;1.35;;;17.40;99.90;;;17.72;100.00;100875.19;5206061;28;20069;-69
2022/08/22 04:14:15;;;;;;;3.55;1.73;;;17.40;99.90;;;17.72;100.00;100880.44;5205402;28;20099;-68
2022/08/22 04:17:21;;;;;;;2.40;1.52;;;17.40;99.90;;;17.70;100.00;100882.16;5142230;28;20059;-69
2022/08/22 04:20:40;;;;;;;2.65;1.63;;;17.30;99.90;;;17.68;100.00;100887.44;5200080;28;20052;-70
2022/08/22 04:23:57;;;;;;;2.00;1.52;;;17.30;99.90;;;17.63;100.00;100887.41;5205064;28;20495;-69
2022/08/22 04:26:40;;;;;;;1.85;1.30;;;17.30;99.90;;;17.58;100.00;100894.38;5194290;28;20064;-70
2022/08/22 04:29:19;;;;;;;2.38;1.35;;;17.30;99.90;;;17.53;100.00;100893.44;5204442;28;20514;-70
2022/08/22 04:32:01;;;;;;;2.22;1.42;;;17.20;99.90;;;17.51;100.00;100891.69;5205211;28;20120;-71
2022/08/22 04:34:41;;;;;;;4.28;1.80;;;17.20;99.90;;;17.49;100.00;100882.91;5204737;28;20045;-69
2022/08/22 04:37:24;;;;;;;2.65;1.40;;;17.10;99.90;;;17.45;100.00;100881.09;5220136;28;20056;-70
2022/08/22 04:40:01;;;;;;;2.97;1.33;;;17.10;99.90;;;17.43;100.00;100888.13;5194369;28;20426;-73
2022/08/22 04:42:40;;;;;;;3.22;1.63;;;17.10;99.90;;;17.40;100.00;100888.94;5189971;28;20044;-70
2022/08/22 04:45:21;;;;;;;1.73;1.45;;;17.10;99.90;;;17.39;100.00;100892.47;5202493;28;20425;-70
2022/08/22 04:48:00;;;;;;;3.17;1.63;;;17.10;99.90;;;17.41;100.00;100882.84;5196643;28;20447;-68
2022/08/22 04:50:41;;;;;;;1.90;1.50;;;17.10;99.90;;;17.43;100.00;100890.75;5204990;28;20073;-70
2022/08/22 04:53:31;;;;;;;2.30;1.38;;;17.10;99.90;;;17.42;100.00;100889.88;5205065;28;20116;-71
2022/08/22 04:56:14;;;;;;;3.90;1.50;;;17.10;99.90;;;17.45;100.00;100889.88;5203955;28;20052;-71
2022/08/22 04:58:50;;;;;;;2.50;1.73;;;17.10;99.90;;;17.47;100.00;100890.75;5203602;28;20059;-68
2022/08/22 05:01:27;;;;;;;2.72;1.35;;;17.10;99.90;;;17.49;100.00;100903.97;5204713;28;20044;-70
2022/08/22 05:04:05;;;;;;;2.60;1.60;;;17.10;99.90;;;17.49;100.00;100893.44;5204489;28;20509;-68
2022/08/22 05:06:41;;;;;;;2.78;1.52;;;17.10;99.90;;;17.52;100.00;100899.59;5203024;28;20053;-69
2022/08/22 05:09:19;;;;;;;3.78;1.42;;;17.10;99.90;;;17.57;100.00;100897.88;5204587;28;20049;-69
2022/08/22 05:11:58;;;;;;;3.45;1.70;;;17.20;99.90;;;17.63;100.00;100903.22;5204276;28;20092;-68
2022/08/22 05:14:38;;;;;;;3.08;1.55;;;17.30;99.90;;;17.66;100.00;100904.09;5186589;28;20050;-69
2022/08/22 05:17:17;;;;;;;2.15;1.45;;;17.30;99.90;;;17.69;100.00;100912.03;5183819;28;20448;-70
2022/08/22 05:19:55;;;;;;;2.75;1.50;;;17.30;99.90;;;17.72;100.00;100917.34;5183852;28;20046;-69
2022/08/22 05:22:32;;;;;;;1.95;1.48;;;17.30;99.90;;;17.76;100.00;100913.88;5181974;28;20046;-69
2022/08/22 05:25:11;;;;;;;4.07;1.58;;;17.40;99.90;;;17.80;100.00;100915.66;5183958;28;20042;-70
2022/08/22 05:27:49;;;;;;;2.25;1.70;;;17.40;99.90;;;17.84;100.00;100922.72;5183644;28;20467;-69
2022/08/22 05:30:25;;;;;;;2.38;1.60;;;17.50;99.90;;;17.91;100.00;100919.25;5182007;28;20601;-70
2022/08/22 05:33:07;;;;;;;2.80;1.73;;;17.60;99.90;;;18.28;100.00;100919.50;5179414;28;20038;-70
2022/08/22 05:35:46;;;;;;;3.05;1.77;;;17.80;99.90;;;19.09;100.00;100923.31;5188085;28;20088;-69
2022/08/22 05:38:26;;;;;;;4.38;1.98;;;18.30;99.90;;;20.13;96.79;100923.34;5183317;28;20511;-68
2022/08/22 05:41:06;;;;;;;2.40;1.60;;;19.10;99.90;;;21.11;90.42;100917.66;5183480;28;20041;-70
2022/08/22 05:43:44;;;;;;;5.30;1.67;;;20.00;99.30;;;21.91;85.16;100924.13;5183195;28;20056;-70
2022/08/22 05:46:22;;;;;;;2.83;1.45;;;20.90;97.30;;;22.58;81.64;100916.34;5183008;28;20469;-69
2022/08/22 05:48:58;;;;;;;4.40;1.67;;;21.50;95.60;;;23.14;78.48;100917.34;5182371;28;20598;-71
2022/08/22 05:51:42;;;;;;;3.67;1.40;;;22.10;93.80;;;23.69;75.66;100924.50;5183523;28;20134;-69
2022/08/22 05:54:20;;;;;;;2.80;1.58;;;22.70;92.20;;;24.15;73.29;100915.66;5182885;28;20465;-69
2022/08/22 05:57:04;;;;;;;3.35;1.55;;;23.20;90.70;;;24.51;71.97;100909.63;5182889;28;20124;-69
2022/08/22 05:59:41;;;;;;;2.35;1.33;;;23.60;88.80;;;24.83;70.70;100911.59;5182011;28;20045;-69
2022/08/22 06:02:23;;;;;;;1.77;1.42;;;23.90;86.40;;;25.02;69.18;100912.06;5181225;28;20075;-70
2022/08/22 06:05:00;;;;;;;4.00;1.65;;;24.20;84.10;;;25.13;68.47;100910.06;5181645;28;20078;-63
2022/08/22 06:07:39;;;;;;;3.13;1.60;;;24.30;82.50;;;25.26;67.93;100912.44;5183372;28;20109;-61
2022/08/22 06:10:23;;;;;;;3.38;1.60;;;24.50;81.10;;;25.43;67.66;100918.25;5186826;28;20542;-63
2022/08/22 06:13:02;;;;;;;3.17;1.63;;;24.60;80.40;;;25.44;66.98;100923.56;5186771;28;20463;-63
2022/08/22 06:15:47;;;;;;;2.63;1.30;;;24.70;79.20;;;25.26;67.46;100923.13;5187091;28;20048;-60
2022/08/22 06:18:24;;;;;;;2.25;1.35;;;24.60;78.90;;;24.88;68.07;100925.72;5187019;28;20042;-60
2022/08/22 06:21:00;;;;;;;3.40;1.40;;;24.40;78.80;;;24.51;69.72;100925.59;5185267;28;20033;-59
2022/08/22 06:23:41;;;;;;;2.90;1.35;;;24.00;79.70;;;24.21;71.19;100926.22;5185684;28;20115;-61
2022/08/22 06:26:14;;;;;;;2.78;1.40;;;23.70;81.00;;;23.92;71.81;100932.94;5187146;28;20350;-59
2022/08/22 06:28:51;;;;;;;2.33;1.20;;;23.50;81.60;;;23.67;72.32;100939.59;5186613;28;20125;-60
2022/08/22 06:31:29;;;;;;;4.38;1.70;;;23.20;82.10;;;23.50;73.29;100939.84;5186173;28;20905;-62
2022/08/22 06:34:09;;;;;;;4.43;2.10;;;23.00;84.00;;;23.39;74.30;100940.00;5188770;28;20042;-60
2022/08/22 06:36:45;;;;;;;3.05;1.50;;;22.90;84.50;;;23.36;75.01;100945.38;5206880;28;20049;-60
2022/08/22 06:39:22;;;;;;;3.38;1.45;;;22.80;85.40;;;23.28;74.75;100950.84;5196787;28;20050;-60
2022/08/22 06:42:01;;;;;;;4.78;1.58;;;22.70;85.50;;;23.24;74.67;100957.09;5185583;28;20049;-60
2022/08/22 06:44:40;;;;;;;3.85;1.65;;;22.60;85.50;;;23.19;74.52;100953.59;5186883;28;20042;-60
2022/08/22 06:47:17;;;;;;;5.53;1.73;;;22.60;85.40;;;23.17;74.82;100949.22;5186546;28;20124;-62
2022/08/22 06:49:55;;;;;;;3.85;1.67;;;22.50;85.80;;;23.20;75.38;100954.47;5186515;28;20042;-59
2022/08/22 06:52:30;;;;;;;4.60;2.00;;;22.50;86.40;;;23.26;75.78;100943.75;5186524;28;20044;-61
2022/08/22 06:55:07;;;;;;;2.40;1.65;;;22.60;86.90;;;23.33;75.76;100944.53;5186735;28;20647;-60
2022/08/22 06:57:46;;;;;;;3.83;2.08;;;22.60;86.90;;;23.39;75.65;100939.13;5185075;28;20050;-61
2022/08/22 07:00:20;;;;;;;3.10;1.40;;;22.70;86.90;;;23.46;74.92;100940.78;5186178;28;20048;-61
2022/08/22 07:02:57;;;;;;;5.50;1.80;;;22.70;86.30;;;23.52;74.72;100938.91;5186217;28;20121;-61
2022/08/22 07:05:38;;;;;;;2.67;1.80;;;22.80;86.00;;;23.58;74.07;100937.06;5185621;28;20058;-60
2022/08/22 07:08:19;;;;;;;;;;;22.80;85.70;;;23.65;73.42;100930.75;5185663;28;20132;-60
2022/08/22 07:10:59;;;;;;;2.97;1.50;;;22.90;85.00;;;23.78;73.39;100933.19;5186948;28;19968;-62
2022/08/22 07:13:32;;;;;;;3.00;1.60;;;23.00;84.90;;;23.92;72.93;100924.94;5184732;28;20038;-62
2022/08/22 07:16:09;;;;;;;3.58;1.42;;;23.10;84.70;;;24.04;73.03;100927.38;5185497;28;20100;-61
2022/08/22 07:18:48;;;;;;;2.55;1.30;;;23.20;84.70;;;24.16;72.69;100933.41;5183144;28;20048;-61
2022/08/22 07:21:27;;;;;;;3.38;1.63;;;23.30;84.10;;;24.29;72.46;100935.78;5178791;28;20054;-61
2022/08/22 07:24:01;;;;;;;2.30;1.35;;;23.40;83.80;;;24.46;72.23;100932.84;5183020;28;20073;-61
2022/08/22 07:27:07;;;;;;;2.10;1.45;;;23.60;83.70;;;24.62;71.61;100926.28;5183021;28;20542;-60
2022/08/22 07:29:49;;;;;;;2.75;1.30;;;23.70;83.00;;;24.83;71.59;100938.25;5190258;28;20050;-61
2022/08/22 07:32:30;;;;;;;3.58;1.65;;;23.90;83.00;;;24.98;70.12;100939.72;5183421;28;20068;-61
2022/08/22 07:35:10;;;;;;;3.78;1.50;;;24.10;81.70;;;25.07;69.63;100936.00;5184125;28;20042;-61
2022/08/22 07:37:55;;;;;;;2.42;1.38;;;24.10;81.10;;;25.20;69.92;100941.94;5186259;28;20045;-63
2022/08/22 07:40:34;;;;;;;3.08;1.50;;;24.30;81.20;;;25.26;68.98;100937.34;5187315;28;20056;-61
2022/08/22 07:43:21;;;;;;;2.40;1.33;;;24.30;80.50;;;25.29;68.22;100937.25;5187261;28;20038;-63
2022/08/22 07:45:56;;;;;;;;;;;24.30;79.30;;;25.29;68.23;100939.91;5186728;28;20056;-61
2022/08/22 07:48:35;;;;;;;3.67;1.52;;;24.30;79.10;;;25.35;67.84;100946.91;5185526;28;19926;-61
2022/08/22 07:51:12;;;;;;;2.50;1.40;;;24.40;78.80;;;25.47;66.91;100951.94;5187092;28;20046;-65
2022/08/22 07:53:47;;;;;;;2.05;1.20;;;24.50;77.80;;;25.62;66.79;100951.56;5186546;28;20069;-65
2022/08/22 07:56:24;;;;;;;3.90;1.30;;;24.60;77.60;;;25.88;66.41;100953.59;5186358;28;20046;-61
2022/08/22 07:59:01;;;;;;;3.83;1.20;;;24.80;77.40;;;26.15;65.78;100949.34;5185887;28;20116;-63
2022/08/22 08:01:34;;;;;;;3.50;1.60;;;25.00;77.60;;;26.37;64.85;100956.75;5186096;28;20069;-64
2022/08/22 08:04:11;;;;;;;2.42;1.30;;;25.20;75.90;;;26.53;63.89;100952.75;5185825;28;20100;-65
2022/08/22 08:06:48;;;;;;;1.20;1.00;;;25.30;74.80;;;26.60;63.28;100948.97;5184108;28;20474;-63
2022/08/22 08:09:21;;;;;;;2.25;1.30;;;25.40;74.20;;;26.88;63.33;100950.88;5185628;28;20049;-61
2022/08/22 08:11:54;;;;;;;2.67;1.10;;;25.50;74.30;;;27.28;62.22;100947.84;5185881;28;20064;-65
2022/08/22 08:14:27;;;;;;;1.55;1.02;;;25.70;73.40;;;27.72;61.02;100942.88;5183134;28;20064;-61
2022/08/22 08:17:05;;;;;;;2.63;1.30;;;26.10;72.60;;;28.21;59.94;100941.16;5181527;28;20379;-62
2022/08/22 08:19:42;;;;;;;4.28;1.27;;;26.40;71.70;;;28.69;58.33;100937.63;5182722;28;20079;-61
2022/08/22 08:22:18;;;;;;;2.20;1.33;;;26.70;70.50;;;29.27;57.15;100935.38;5183822;28;20052;-58
2022/08/22 08:24:54;;;;;;;2.40;1.13;;;27.00;69.70;;;29.85;55.44;100939.22;5177210;28;20053;-62
2022/08/22 08:30:35;;;;;;;1.70;0.82;;;27.70;66.90;;;31.55;52.14;100926.84;5184178;28;20140;-63
2022/08/22 08:33:12;;;;;;;1.40;0.90;;;28.30;65.70;;;32.43;50.09;100922.38;5184680;28;20072;-65
2022/08/22 08:35:52;;;;;;;2.42;1.20;;;28.80;63.70;;;33.35;48.31;100931.59;5183982;28;20044;-63
2022/08/22 08:38:31;;;;;;;3.03;0.98;;;29.40;61.80;;;34.17;46.52;100933.91;5184660;28;20121;-65
2022/08/22 08:41:41;;;;;;;2.10;0.93;;;30.20;59.70;;;35.07;44.88;100922.81;5184027;28;20038;-64
2022/08/22 08:44:34;;;;;;;2.63;0.93;;;31.00;57.60;;;35.88;43.82;100923.69;5183415;28;20057;-64
2022/08/22 08:47:44;;;;;;;1.38;0.80;;;31.80;55.70;;;36.55;42.56;100928.97;5184272;28;20053;-65
2022/08/22 08:50:32;;;;;;;1.85;1.00;;;32.50;54.50;;;37.13;42.79;100923.84;5185001;28;20038;-62
2022/08/22 08:53:57;;;;;;;1.60;0.93;;;33.10;53.50;;;37.51;41.70;100917.41;5184643;28;20141;-64
2022/08/22 08:56:35;;;;;;;;;;;33.60;52.40;;;37.40;42.17;100913.66;5185180;28;20042;-64
2022/08/22 08:59:25;;;;;;;3.17;1.00;;;33.70;51.80;;;37.21;42.29;100914.13;5184689;28;20024;-64
2022/08/22 09:02:26;;;;;;;2.83;1.20;;;33.70;51.80;;;36.82;42.05;100903.50;5184693;28;20038;-64
2022/08/22 09:05:55;;;;;;;1.83;0.90;;;33.60;51.20;;;35.87;43.47;100904.81;5184869;28;20046;-63
2022/08/22 09:09:03;;;;;;;3.10;1.10;;;33.10;51.70;;;34.61;44.71;100897.84;5184185;28;20085;-62
2022/08/22 09:12:14;;;;;;;1.95;1.10;;;32.30;52.50;;;33.71;46.31;100901.53;5183101;28;20187;-65
2022/08/22 09:15:13;;;;;;;2.22;0.88;;;31.70;53.60;;;33.17;46.71;100899.28;5182225;28;20509;-65
2022/08/22 09:18:32;;;;;;;;;;;31.20;53.90;;;33.13;46.67;100896.88;5184158;28;20463;-65
2022/08/22 09:21:28;;;;;;;2.78;1.15;;;31.10;53.70;;;33.40;46.12;100889.00;5165608;28;19928;-62
2022/08/22 09:24:46;;;;;;;3.10;1.10;;;31.40;53.40;;;33.10;46.31;100886.22;5163385;28;20042;-60
2022/08/22 09:27:30;;;;;;;1.95;1.02;;;31.40;53.20;;;32.66;47.20;100878.78;5162806;28;20132;-60
2022/08/22 09:30:10;;;;;;;2.28;0.95;;;31.20;53.50;;;32.55;48.08;100874.00;5163251;28;20057;-62
2022/08/22 09:32:53;;;;;;;3.25;1.02;;;31.20;54.00;;;32.39;48.39;100876.66;5163218;28;20050;-61
2022/08/22 09:35:37;;;;;;;1.80;1.30;;;31.10;54.10;;;32.03;48.48;100884.88;5163250;28;20049;-61
2022/08/22 09:38:30;;;;;;;2.83;1.27;;;30.80;54.00;;;31.66;48.84;100882.34;5162965;28;20113;-59
2022/08/22 09:41:21;;;;;;;1.70;0.90;;;30.50;54.50;;;31.47;49.70;100871.63;5166980;28;20149;-63
2022/08/22 09:44:08;;;;;;;1.95;1.08;;;30.30;55.30;;;31.43;50.50;100868.25;5175643;28;20301;-65
2022/08/22 09:46:54;;;;;;;2.22;1.00;;;30.10;56.00;;;31.40;50.32;100876.47;5183769;28;20057;-64
2022/08/22 09:49:43;;;;;;;1.77;1.10;;;30.10;56.60;;;31.34;49.98;100868.69;5183612;28;20406;-64
2022/08/22 09:52:45;;;;;;;2.03;1.05;;;30.00;55.70;;;31.20;50.09;100861.28;5183821;28;20048;-65
2022/08/22 09:55:38;;;;;;;3.03;1.27;;;30.00;55.70;;;31.19;51.05;100853.28;5184088;28;20560;-58
2022/08/22 09:58:22;;;;;;;;;;;29.90;56.50;;;31.14;50.86;100853.50;5180238;28;20037;-59
2022/08/22 10:00:59;;;;;;;2.13;1.15;;;29.90;56.30;;;31.35;49.95;100851.56;5176381;28;19925;-62
2022/08/22 10:04:46;;;;;;;2.90;1.38;;;30.00;55.80;;;31.61;48.69;100847.53;5183791;28;20046;-63
2022/08/22 10:07:38;;;;;;;2.03;1.33;;;30.20;54.90;;;31.41;48.40;100851.25;5122566;28;20064;-63
2022/08/22 10:10:25;;;;;;;3.17;1.52;;;30.20;54.10;;;31.12;49.37;100847.31;5183740;28;20124;-63
2022/08/22 10:13:07;;;;;;;2.67;1.40;;;30.00;54.70;;;30.68;48.89;100844.97;5183806;28;20550;-65
2022/08/22 10:15:55;;;;;;;1.85;1.13;;;29.70;54.30;;;30.34;49.74;100840.31;5183804;28;20052;-65
2022/08/22 10:18:37;;;;;;;1.77;1.10;;;29.40;54.90;;;30.09;49.37;100845.03;5183525;28;20042;-67
2022/08/22 10:21:18;;;;;;;1.25;1.02;;;29.20;54.80;;;29.88;50.19;100842.38;5181848;28;20139;-67
2022/08/22 10:23:56;;;;;;;2.17;1.15;;;29.00;55.20;;;29.77;50.86;100833.91;5181617;28;20087;-64
2022/08/22 10:26:33;;;;;;;2.08;1.00;;;28.80;55.80;;;29.75;51.14;100835.78;5177868;28;20038;-65
2022/08/22 10:29:35;;;;;;;1.35;0.95;;;28.70;56.30;;;29.83;51.69;100833.63;5177083;28;20495;-64
2022/08/22 10:32:26;;;;;;;3.03;1.17;;;28.70;56.70;;;29.89;51.15;100832.50;5182092;28;20506;-66
2022/08/22 10:35:06;;;;;;;1.85;1.17;;;28.80;56.60;;;30.03;51.51;100834.56;5182900;28;20045;-65
2022/08/22 10:37:49;;;;;;;2.10;1.30;;;28.80;56.90;;;30.29;51.06;100830.69;5182586;28;20093;-65
2022/08/22 10:40:29;;;;;;;2.75;1.20;;;29.00;56.60;;;30.39;49.94;100835.59;5183276;28;20514;-64
2022/08/22 10:43:08;;;;;;;2.20;1.20;;;29.10;55.50;;;30.47;49.64;100828.03;5183065;28;20050;-64
2022/08/22 10:45:47;;;;;;;1.77;1.40;;;29.20;55.20;;;30.70;49.77;100826.06;5182574;28;20466;-63
2022/08/22 10:48:33;;;;;;;2.42;1.48;;;29.40;55.40;;;30.77;49.72;100823.00;5181389;28;20054;-64
2022/08/22 10:51:19;;;;;;;3.40;1.23;;;29.50;55.30;;;30.58;49.56;100826.63;5182810;28;20125;-61
2022/08/22 10:54:33;;;;;;;4.05;1.50;;;29.40;55.20;;;30.49;50.78;100812.69;5183484;28;20495;-61
2022/08/22 10:57:20;;;;;;;2.40;1.38;;;29.30;55.90;;;30.52;50.00;100817.06;5185912;28;20037;-62
2022/08/22 11:00:04;;;;;;;1.40;1.20;;;29.40;55.60;;;30.49;49.47;100822.56;5186208;28;20061;-62
2022/08/22 11:02:52;;;;;;;2.35;1.52;;;29.40;55.00;;;30.43;49.81;100818.34;5186228;28;20652;-62
2022/08/22 11:05:38;;;;;;;2.78;1.17;;;29.30;54.90;;;30.45;49.08;100819.16;5185857;28;20038;-61
2022/08/22 11:08:49;;;;;;;2.80;1.33;;;29.40;54.70;;;30.56;49.07;100824.00;5183198;28;20046;-61
2022/08/22 11:11:38;;;;;;;2.38;1.40;;;29.40;54.60;;;30.56;48.42;100812.38;5186203;28;20049;-63
2022/08/22 11:14:34;;;;;;;2.50;1.40;;;29.40;53.90;;;30.54;48.87;100804.41;5186052;28;20038;-61
2022/08/22 11:17:27;;;;;;;2.53;1.40;;;29.50;54.50;;;30.57;47.91;100814.13;5185591;28;20158;-61
2022/08/22 11:20:17;;;;;;;2.13;1.27;;;29.50;53.90;;;30.58;48.27;100823.94;5184876;28;20129;-62
2022/08/22 11:23:15;;;;;;;2.10;1.13;;;29.50;53.80;;;30.57;47.91;100808.75;5185910;28;20041;-61
2022/08/22 11:26:02;;;;;;;2.28;1.30;;;29.50;53.50;;;30.49;47.89;100812.69;5185839;28;20069;-62
2022/08/22 11:29:20;;;;;;;1.92;1.20;;;29.40;53.60;;;30.45;48.59;100804.81;5182756;28;20133;-61
2022/08/22 11:32:01;;;;;;;1.70;1.30;;;29.40;54.20;;;30.42;49.36;100797.78;5176581;28;20130;-62
2022/08/22 11:34:52;;;;;;;3.08;1.35;;;29.40;54.50;;;30.54;49.77;100797.19;5184310;28;20487;-62
2022/08/22 11:37:49;;;;;;;1.92;1.20;;;29.40;54.90;;;30.59;48.84;100791.59;5181772;28;20050;-62
2022/08/22 11:40:46;;;;;;;3.97;1.40;;;29.50;54.40;;;30.58;49.34;100794.34;5184092;28;20100;-62
2022/08/22 11:43:42;;;;;;;2.20;1.15;;;29.40;54.50;;;30.65;49.34;100790.44;5197437;28;20058;-63